createdAt,value
2019-01-04T00:00:41.225Z,3.70
2019-01-04T00:03:09.537Z,3.70
2019-01-04T00:05:37.877Z,3.80
2019-01-04T00:08:06.180Z,3.80
2019-01-04T00:10:34.473Z,3.80
2019-01-04T00:13:02.753Z,3.80
2019-01-04T00:15:31.218Z,3.80
2019-01-04T00:17:59.593Z,3.80
2019-01-04T00:20:28.051Z,3.90
2019-01-04T00:22:56.415Z,3.90
2019-01-04T00:25:24.799Z,4.00
2019-01-04T00:27:53.229Z,3.90
2019-01-04T00:30:22.683Z,3.90
2019-01-04T00:32:51.077Z,3.90
2019-01-04T00:35:19.391Z,3.90
2019-01-04T00:37:47.768Z,3.90
2019-01-04T00:40:16.136Z,3.90
2019-01-04T00:42:44.543Z,3.90
2019-01-04T00:45:12.855Z,3.90
2019-01-04T00:47:41.207Z,3.90
2019-01-04T00:50:09.519Z,3.90
2019-01-04T00:52:37.873Z,3.90
2019-01-04T00:55:12.111Z,3.90
2019-01-04T00:57:52.398Z,3.90
2019-01-04T01:00:38.897Z,3.90
2019-01-04T01:03:25.451Z,3.90
2019-01-04T01:06:16.774Z,3.80
2019-01-04T01:09:23.205Z,3.70
2019-01-04T01:12:11.486Z,3.70
2019-01-04T01:15:01.118Z,3.70
2019-01-04T01:18:05.797Z,3.80
2019-01-04T01:21:05.918Z,3.80
2019-01-04T01:24:12.270Z,3.70
2019-01-04T01:27:01.674Z,3.70
2019-01-04T01:30:01.362Z,3.70
2019-01-04T01:32:50.972Z,3.60
2019-01-04T01:35:30.636Z,3.70
2019-01-04T01:38:05.135Z,3.70
2019-01-04T01:40:48.816Z,3.70
2019-01-04T01:43:38.494Z,3.60
2019-01-04T01:46:21.947Z,3.60
2019-01-04T01:48:56.357Z,3.60
2019-01-04T01:51:27.987Z,3.60
2019-01-04T01:53:56.273Z,3.60
2019-01-04T01:56:24.652Z,3.60
2019-01-04T01:58:52.995Z,3.60
2019-01-04T02:01:21.356Z,3.70
2019-01-04T02:03:49.663Z,3.70
2019-01-04T02:06:18.016Z,3.70
2019-01-04T02:08:46.405Z,3.70
2019-01-04T02:11:14.767Z,3.80
2019-01-04T02:13:43.147Z,3.80
2019-01-04T02:16:11.521Z,3.80
2019-01-04T02:18:39.959Z,3.80
2019-01-04T02:21:08.261Z,3.80
2019-01-04T02:23:36.631Z,3.80
2019-01-04T02:26:05.081Z,3.80
2019-01-04T02:28:33.516Z,3.90
2019-01-04T02:31:01.801Z,3.90
2019-01-04T02:33:30.102Z,4.00
2019-01-04T02:35:58.409Z,4.00
2019-01-04T02:38:26.781Z,4.00
2019-01-04T02:40:55.073Z,4.10
2019-01-04T02:43:23.457Z,4.10
2019-01-04T02:45:51.789Z,4.20
2019-01-04T02:48:20.113Z,4.20
2019-01-04T02:50:48.552Z,4.20
2019-01-04T02:53:16.948Z,4.20
2019-01-04T02:55:45.232Z,4.20
2019-01-04T02:58:13.612Z,4.20
2019-01-04T03:00:41.972Z,4.30
2019-01-04T03:03:10.268Z,4.30
2019-01-04T03:05:38.719Z,4.40
2019-01-04T03:08:07.206Z,4.40
2019-01-04T03:10:35.491Z,4.40
2019-01-04T03:13:03.876Z,4.40
2019-01-04T03:15:32.228Z,4.40
2019-01-04T03:18:00.525Z,4.40
2019-01-04T03:20:28.879Z,4.50
2019-01-04T03:22:57.253Z,4.50
2019-01-04T03:25:25.559Z,4.50
2019-01-04T03:27:53.952Z,4.50
2019-01-04T03:30:22.373Z,4.50
2019-01-04T03:32:50.740Z,4.50
2019-01-04T03:35:19.022Z,4.50
2019-01-04T03:37:47.424Z,4.50
2019-01-04T03:40:15.707Z,4.50
2019-01-04T03:42:44.107Z,4.50
2019-01-04T03:45:12.491Z,4.50
2019-01-04T03:47:40.851Z,4.40
2019-01-04T03:50:09.162Z,4.40
2019-01-04T03:52:37.521Z,4.40
2019-01-04T03:55:05.895Z,4.40
2019-01-04T03:57:34.251Z,4.40
2019-01-04T04:00:02.567Z,4.40
2019-01-04T04:02:31.123Z,4.40
2019-01-04T04:04:59.424Z,4.40
2019-01-04T04:07:27.783Z,4.40
2019-01-04T04:09:56.083Z,4.40
2019-01-04T04:12:24.516Z,4.40
2019-01-04T04:14:52.838Z,4.50
2019-01-04T04:17:21.185Z,4.50
2019-01-04T04:19:49.614Z,4.50
2019-01-04T04:22:17.972Z,4.50
2019-01-04T04:24:46.278Z,4.50
2019-01-04T04:27:14.621Z,4.60
2019-01-04T04:29:43.009Z,4.60
2019-01-04T04:32:11.298Z,4.60
2019-01-04T04:34:39.675Z,4.60
2019-01-04T04:37:08.016Z,4.60
2019-01-04T04:39:36.330Z,4.60
2019-01-04T04:42:04.692Z,4.60
2019-01-04T04:44:33.088Z,4.60
2019-01-04T04:47:01.432Z,4.70
2019-01-04T04:49:29.948Z,4.70
2019-01-04T04:51:58.251Z,4.70
2019-01-04T04:54:26.598Z,4.70
2019-01-04T04:56:54.910Z,4.80
2019-01-04T04:59:23.254Z,4.80
2019-01-04T05:01:51.550Z,4.80
2019-01-04T05:04:19.837Z,4.80
2019-01-04T05:06:48.210Z,4.90
2019-01-04T05:09:16.568Z,4.90
2019-01-04T05:11:44.949Z,4.90
2019-01-04T05:14:13.298Z,4.90
2019-01-04T05:16:41.617Z,4.80
2019-01-04T05:19:10.051Z,4.80
2019-01-04T05:21:38.344Z,4.70
2019-01-04T05:24:06.660Z,4.70
2019-01-04T05:26:35.189Z,4.70
2019-01-04T05:29:03.586Z,4.60
2019-01-04T05:31:31.949Z,4.60
2019-01-04T05:34:00.328Z,4.50
2019-01-04T05:36:29.123Z,4.50
2019-01-04T05:38:57.648Z,4.50
2019-01-04T05:41:25.977Z,4.50
2019-01-04T05:43:54.280Z,4.50
2019-01-04T05:46:22.840Z,4.50
2019-01-04T05:48:52.731Z,4.50
2019-01-04T05:51:21.239Z,4.50
2019-01-04T05:53:49.543Z,4.50
2019-01-04T05:56:17.903Z,4.50
2019-01-04T05:58:46.212Z,4.50
2019-01-04T06:01:14.500Z,4.40
2019-01-04T06:03:42.811Z,4.40
2019-01-04T06:06:11.298Z,4.40
2019-01-04T06:08:39.685Z,4.40
2019-01-04T06:11:08.067Z,4.40
2019-01-04T06:13:36.360Z,4.40
2019-01-04T06:16:04.682Z,4.40
2019-01-04T06:18:32.986Z,4.50
2019-01-04T06:21:01.341Z,4.50
2019-01-04T06:23:29.674Z,4.50
2019-01-04T06:25:58.024Z,4.50
2019-01-04T06:28:26.318Z,4.50
2019-01-04T06:30:54.612Z,4.60
2019-01-04T06:33:22.995Z,4.60
2019-01-04T06:35:51.281Z,4.60
2019-01-04T06:38:19.594Z,4.70
2019-01-04T06:40:47.888Z,4.80
2019-01-04T06:43:16.194Z,4.90
2019-01-04T06:45:44.627Z,4.90
2019-01-04T06:48:13.000Z,4.90
2019-01-04T06:50:41.304Z,4.90
2019-01-04T06:53:09.679Z,4.90
2019-01-04T06:55:50.072Z,4.90
2019-01-04T06:58:18.367Z,4.90
2019-01-04T07:00:46.666Z,4.80
2019-01-04T07:03:14.987Z,4.80
2019-01-04T07:05:43.352Z,4.70
2019-01-04T07:08:11.634Z,4.70
2019-01-04T07:10:39.943Z,4.60
2019-01-04T07:13:08.310Z,4.50
2019-01-04T07:15:36.611Z,4.50
2019-01-04T07:18:04.906Z,4.40
2019-01-04T07:20:33.353Z,4.40
2019-01-04T07:23:01.701Z,4.40
2019-01-04T07:25:30.025Z,4.30
2019-01-04T07:27:58.366Z,4.30
2019-01-04T07:30:26.704Z,4.30
2019-01-04T07:32:55.399Z,4.30
2019-01-04T07:35:23.749Z,4.30
2019-01-04T07:37:52.068Z,4.30
2019-01-04T07:40:23.379Z,4.30
2019-01-04T07:42:52.776Z,4.20
2019-01-04T07:45:21.846Z,4.20
2019-01-04T07:47:50.181Z,4.10
2019-01-04T07:50:18.674Z,4.00
2019-01-04T07:52:46.965Z,4.00
2019-01-04T07:55:15.270Z,3.90
2019-01-04T07:57:43.624Z,3.90
2019-01-04T08:00:12.677Z,3.80
2019-01-04T08:02:42.671Z,3.80
2019-01-04T08:05:16.248Z,3.70
2019-01-04T08:07:49.988Z,3.70
2019-01-04T08:10:18.326Z,3.70
2019-01-04T08:12:46.686Z,3.70
2019-01-04T08:15:14.988Z,3.70
2019-01-04T08:17:43.337Z,3.70
2019-01-04T08:20:11.982Z,3.70
2019-01-04T08:22:40.346Z,3.70
2019-01-04T08:25:08.921Z,3.70
2019-01-04T08:27:37.266Z,3.80
2019-01-04T08:30:11.035Z,3.80
2019-01-04T08:32:39.331Z,3.90
2019-01-04T08:35:07.720Z,3.90
2019-01-04T08:37:36.083Z,4.00
2019-01-04T08:40:07.026Z,4.00
2019-01-04T08:42:35.402Z,4.10
2019-01-04T08:45:03.761Z,4.10
2019-01-04T08:47:35.072Z,4.10
2019-01-04T08:50:04.645Z,4.20
2019-01-04T08:52:37.503Z,4.20
2019-01-04T08:55:08.333Z,4.20
2019-01-04T08:57:36.748Z,4.20
2019-01-04T09:00:10.953Z,4.30
2019-01-04T09:02:39.263Z,4.30
2019-01-04T09:05:07.626Z,4.30
2019-01-04T09:07:36.033Z,4.30
2019-01-04T09:10:05.738Z,4.30
2019-01-04T09:12:34.043Z,4.30
2019-01-04T09:15:02.414Z,4.30
2019-01-04T09:17:30.732Z,4.20
2019-01-04T09:20:01.334Z,4.30
2019-01-04T09:22:29.764Z,4.30
2019-01-04T09:25:01.223Z,4.40
2019-01-04T09:27:29.868Z,4.40
2019-01-04T09:29:58.232Z,4.40
2019-01-04T09:32:29.360Z,4.40
2019-01-04T09:34:57.722Z,4.40
2019-01-04T09:37:26.038Z,4.40
2019-01-04T09:39:54.315Z,4.40
2019-01-04T09:42:22.614Z,4.40
2019-01-04T09:44:52.653Z,4.50
2019-01-04T09:47:26.112Z,4.50
2019-01-04T09:49:57.412Z,4.50
2019-01-04T09:52:25.814Z,4.60
2019-01-04T09:54:54.167Z,4.70
2019-01-04T09:57:23.636Z,4.70
2019-01-04T10:02:27.094Z,4.70
2019-01-04T10:04:55.409Z,4.70
2019-01-04T10:07:27.757Z,4.70
2019-01-04T10:09:56.134Z,4.70
2019-01-04T10:12:25.007Z,4.80
2019-01-04T10:14:55.377Z,4.80
2019-01-04T10:17:23.419Z,4.80
2019-01-04T10:19:51.713Z,4.90
2019-01-04T10:22:20.391Z,4.80
2019-01-04T10:24:52.975Z,4.90
2019-01-04T10:27:21.447Z,4.90
2019-01-04T10:29:49.735Z,4.80
2019-01-04T10:32:20.825Z,4.80
2019-01-04T10:34:49.200Z,4.90
2019-01-04T10:37:17.579Z,4.80
2019-01-04T10:39:45.871Z,4.80
2019-01-04T10:42:14.159Z,4.80
2019-01-04T10:44:44.177Z,4.80
2019-01-04T10:47:13.844Z,4.80
2019-01-04T10:49:42.256Z,4.80
2019-01-04T10:52:11.713Z,4.80
2019-01-04T10:54:40.017Z,4.90
2019-01-04T10:57:21.976Z,4.90
2019-01-04T10:59:50.284Z,4.90
2019-01-04T11:02:18.763Z,4.90
2019-01-04T11:04:47.430Z,4.90
2019-01-04T11:07:15.848Z,4.90
2019-01-04T11:09:50.816Z,4.90
2019-01-04T11:12:20.882Z,4.90
2019-01-04T11:14:49.272Z,5.00
2019-01-04T11:17:17.650Z,5.00
2019-01-04T11:19:48.994Z,5.00
2019-01-04T11:22:39.744Z,5.00
2019-01-04T11:25:44.458Z,5.00
2019-01-04T11:28:25.058Z,5.00
2019-01-04T11:30:56.696Z,5.00
2019-01-04T11:33:27.018Z,4.90
2019-01-04T11:36:10.314Z,5.00
2019-01-04T11:38:56.748Z,4.90
2019-01-04T11:41:43.461Z,4.90
2019-01-04T11:44:40.680Z,4.90
2019-01-04T11:47:20.023Z,4.90
2019-01-04T11:50:03.247Z,4.90
2019-01-04T11:52:34.907Z,4.90
2019-01-04T11:55:03.269Z,4.90
2019-01-04T11:57:31.561Z,4.90
2019-01-04T11:59:59.915Z,4.80
2019-01-04T12:02:28.217Z,4.80
2019-01-04T12:04:58.175Z,4.80
2019-01-04T12:07:26.489Z,4.80
2019-01-04T12:09:55.205Z,4.90
2019-01-04T12:12:23.563Z,4.90
2019-01-04T12:14:51.881Z,4.80
2019-01-04T12:17:20.343Z,4.80
2019-01-04T12:20:08.098Z,4.80
2019-01-04T12:22:39.378Z,4.80
2019-01-04T12:25:07.752Z,4.80
2019-01-04T12:27:36.133Z,4.80
2019-01-04T12:30:06.684Z,4.70
2019-01-04T12:32:35.037Z,4.70
2019-01-04T12:35:03.461Z,4.80
2019-01-04T12:37:31.776Z,4.80
2019-01-04T12:40:00.167Z,4.80
2019-01-04T12:42:30.592Z,4.80
2019-01-04T12:44:58.890Z,4.80
2019-01-04T12:47:27.308Z,4.70
2019-01-04T12:49:55.606Z,4.70
2019-01-04T12:52:23.907Z,4.70
2019-01-04T12:54:54.870Z,4.70
2019-01-04T12:57:23.200Z,4.70
2019-01-04T12:59:51.763Z,4.70
2019-01-04T13:02:29.662Z,4.70
2019-01-04T13:04:57.968Z,4.60
2019-01-04T13:07:26.255Z,4.60
2019-01-04T13:09:54.558Z,4.60
2019-01-04T13:12:23.184Z,4.60
2019-01-04T13:14:51.772Z,4.60
2019-01-04T13:17:20.085Z,4.50
2019-01-04T13:19:50.018Z,4.40
2019-01-04T13:22:20.433Z,4.50
2019-01-04T13:24:48.779Z,4.40
2019-01-04T13:27:18.781Z,4.40
2019-01-04T13:29:47.085Z,4.40
2019-01-04T13:32:15.395Z,4.40
2019-01-04T13:34:44.236Z,4.50
2019-01-04T13:37:12.621Z,4.50
2019-01-04T13:39:41.895Z,4.50
2019-01-04T13:42:10.288Z,4.50
2019-01-04T13:44:38.633Z,4.40
2019-01-04T13:47:07.019Z,4.40
2019-01-04T13:49:35.395Z,4.40
2019-01-04T13:52:03.700Z,4.40
2019-01-04T13:54:32.061Z,4.40
2019-01-04T13:57:00.377Z,4.30
2019-01-04T13:59:28.777Z,4.30
2019-01-04T14:01:57.155Z,4.30
2019-01-04T14:04:25.458Z,4.30
2019-01-04T14:06:53.783Z,4.20
2019-01-04T14:09:22.071Z,4.30
2019-01-04T14:11:50.442Z,4.30
2019-01-04T14:14:19.262Z,4.30
2019-01-04T14:16:47.688Z,4.30
2019-01-04T14:19:16.018Z,4.30
2019-01-04T14:21:44.422Z,4.20
2019-01-04T14:24:12.784Z,4.30
2019-01-04T14:27:02.140Z,4.30
2019-01-04T14:29:32.054Z,4.20
2019-01-04T14:32:00.361Z,4.30
2019-01-04T14:34:28.745Z,4.20
2019-01-04T14:36:57.102Z,4.30
2019-01-04T14:39:25.412Z,4.30
2019-01-04T14:41:53.688Z,4.30
2019-01-04T14:44:21.994Z,4.30
2019-01-04T14:46:50.348Z,4.30
2019-01-04T14:49:18.718Z,4.30
2019-01-04T14:51:47.085Z,4.40
2019-01-04T14:54:15.900Z,4.40
2019-01-04T14:56:44.219Z,4.40
2019-01-04T14:59:12.584Z,4.40
2019-01-04T15:01:41.358Z,4.40
2019-01-04T15:04:09.655Z,4.40
2019-01-04T15:06:37.983Z,4.40
2019-01-04T15:09:08.969Z,4.40
2019-01-04T15:11:37.357Z,4.40
2019-01-04T15:14:05.662Z,4.40
2019-01-04T15:16:34.077Z,4.40
2019-01-04T15:19:02.403Z,4.40
2019-01-04T15:21:31.063Z,4.40
2019-01-04T15:23:59.373Z,4.40
2019-01-04T15:26:34.055Z,4.40
2019-01-04T15:29:02.392Z,4.40
2019-01-04T15:31:30.779Z,4.40
2019-01-04T15:33:59.095Z,4.40
2019-01-04T15:36:27.544Z,4.40
2019-01-04T15:38:55.985Z,4.40
2019-01-04T15:41:27.042Z,4.40
2019-01-04T15:43:56.663Z,4.40
2019-01-04T15:46:25.525Z,4.40
2019-01-04T15:48:53.888Z,4.40
2019-01-04T15:51:22.273Z,4.40
2019-01-04T15:53:50.638Z,4.40
2019-01-04T15:56:18.962Z,4.40
2019-01-04T15:58:47.356Z,4.40
2019-01-04T16:01:15.961Z,4.40
2019-01-04T16:03:44.807Z,4.40
2019-01-04T16:06:13.106Z,4.40
2019-01-04T16:08:41.402Z,4.40
2019-01-04T16:11:09.781Z,4.40
2019-01-04T16:13:38.092Z,4.40
2019-01-04T16:18:41.584Z,4.40
2019-01-04T16:21:10.495Z,4.40
2019-01-04T16:23:49.107Z,4.40
2019-01-04T16:26:29.464Z,4.50
2019-01-04T16:28:58.723Z,4.50
2019-01-04T16:31:28.657Z,4.50
2019-01-04T16:33:57.575Z,4.50
2019-01-04T16:36:25.889Z,4.50
2019-01-04T16:38:54.289Z,4.40
2019-01-04T16:41:22.579Z,4.40
2019-01-04T16:43:50.887Z,4.40
2019-01-04T16:46:19.177Z,4.40
2019-01-04T16:48:47.731Z,4.50
2019-01-04T16:51:18.837Z,4.50
2019-01-04T16:53:47.897Z,4.50
2019-01-04T16:56:16.449Z,4.50
2019-01-04T16:58:45.282Z,4.50
2019-01-04T17:01:13.656Z,4.50
2019-01-04T17:03:41.952Z,4.40
2019-01-04T17:06:10.331Z,4.40
2019-01-04T17:08:38.701Z,4.30
2019-01-04T17:11:07.090Z,4.30
2019-01-04T17:13:35.586Z,4.30
2019-01-04T17:16:03.900Z,4.30
2019-01-04T17:18:32.202Z,4.30
2019-01-04T17:21:00.499Z,4.20
2019-01-04T17:23:28.932Z,4.30
2019-01-04T17:25:57.266Z,4.30
2019-01-04T17:28:28.428Z,4.30
2019-01-04T17:30:56.744Z,4.30
2019-01-04T17:33:25.191Z,4.30
2019-01-04T17:35:53.472Z,4.30
2019-01-04T17:38:23.049Z,4.30
2019-01-04T17:40:51.345Z,4.30
2019-01-04T17:43:19.715Z,4.30
2019-01-04T17:45:48.004Z,4.30
2019-01-04T17:48:16.308Z,4.20
2019-01-04T17:50:44.588Z,4.30
2019-01-04T17:53:12.883Z,4.30
2019-01-04T17:55:41.202Z,4.30
2019-01-04T17:58:09.503Z,4.30
2019-01-04T18:00:37.791Z,4.30
2019-01-04T18:03:06.105Z,4.30
2019-01-04T18:05:34.401Z,4.30
2019-01-04T18:08:02.705Z,4.40
2019-01-04T18:10:31.007Z,4.30
2019-01-04T18:12:59.377Z,4.40
2019-01-04T18:15:27.751Z,4.40
2019-01-04T18:17:58.704Z,4.40
2019-01-04T18:20:26.101Z,4.40
2019-01-04T18:22:58.511Z,4.40
2019-01-04T18:25:32.825Z,4.40
2019-01-04T18:28:04.572Z,4.40
2019-01-04T18:30:40.254Z,4.40
2019-01-04T18:33:08.657Z,4.40
2019-01-04T18:35:42.015Z,4.40
2019-01-04T18:38:10.300Z,4.40
2019-01-04T18:40:38.675Z,4.50
2019-01-04T18:43:07.036Z,4.50
2019-01-04T18:45:35.494Z,4.50
2019-01-04T18:48:03.854Z,4.50
2019-01-04T18:50:35.152Z,4.50
2019-01-04T18:53:03.773Z,4.50
2019-01-04T18:55:32.076Z,4.50
2019-01-04T18:58:00.632Z,4.60
2019-01-04T19:00:31.794Z,4.60
2019-01-04T19:03:00.180Z,4.60
2019-01-04T19:05:28.658Z,4.70
2019-01-04T19:08:01.534Z,4.70
2019-01-04T19:10:29.846Z,4.70
2019-01-04T19:13:01.408Z,4.70
2019-01-04T19:15:39.178Z,4.80
2019-01-04T19:18:07.635Z,4.70
2019-01-04T19:20:45.820Z,4.80
2019-01-04T19:23:14.204Z,4.70
2019-01-04T19:25:47.245Z,4.80
2019-01-04T19:28:27.447Z,4.70
2019-01-04T19:31:00.672Z,4.70
2019-01-04T19:33:36.616Z,4.80
2019-01-04T19:36:07.847Z,4.80
2019-01-04T19:38:51.569Z,4.80
2019-01-04T19:41:20.228Z,4.80
2019-01-04T19:43:48.931Z,4.80
2019-01-04T19:46:17.248Z,4.80
2019-01-04T19:48:45.600Z,4.80
2019-01-04T19:51:13.903Z,4.80
2019-01-04T19:53:42.193Z,4.80
2019-01-04T19:56:10.507Z,4.80
2019-01-04T19:58:38.875Z,4.80
2019-01-04T20:01:07.155Z,4.80
2019-01-04T20:03:35.702Z,4.70
2019-01-04T20:06:32.763Z,4.80
2019-01-04T20:09:30.885Z,4.80
2019-01-04T20:12:15.945Z,4.70
2019-01-04T20:15:06.788Z,4.70
2019-01-04T20:17:52.794Z,4.70
2019-01-04T20:20:23.994Z,4.70
2019-01-04T20:23:09.382Z,4.70
2019-01-04T20:25:48.233Z,4.80
2019-01-04T20:28:23.932Z,4.80
2019-01-04T20:31:02.910Z,4.80
2019-01-04T20:33:32.870Z,4.90
2019-01-04T20:36:05.817Z,4.90
2019-01-04T20:38:52.176Z,5.00
2019-01-04T20:41:28.220Z,5.10
2019-01-04T20:44:14.249Z,5.10
2019-01-04T20:47:00.535Z,5.20
2019-01-04T20:49:30.543Z,5.20
2019-01-04T20:52:06.317Z,5.20
2019-01-04T20:54:52.698Z,5.30
2019-01-04T20:57:25.155Z,5.20
2019-01-04T20:59:55.135Z,5.20
2019-01-04T21:02:42.407Z,5.20
2019-01-04T21:08:32.860Z,5.20
2019-01-04T21:11:19.189Z,5.20
2019-01-04T21:14:07.497Z,5.10
2019-01-04T21:16:52.810Z,5.20
2019-01-04T21:19:35.095Z,5.10
2019-01-04T21:22:21.339Z,5.10
2019-01-04T21:24:54.292Z,5.20
2019-01-04T21:27:30.018Z,5.20
2019-01-04T21:30:00.196Z,5.20
2019-01-04T21:32:30.251Z,5.30
2019-01-04T21:35:05.951Z,5.30
2019-01-04T21:37:44.863Z,5.30
2019-01-04T21:40:20.935Z,5.30
2019-01-04T21:43:02.754Z,5.40
2019-01-04T21:45:52.227Z,5.50
2019-01-04T21:48:22.150Z,5.50
2019-01-04T21:51:08.794Z,5.50
2019-01-04T21:53:54.956Z,5.50
2019-01-04T21:56:24.975Z,5.50
2019-01-04T21:59:10.364Z,5.50
2019-01-04T22:01:52.962Z,5.60
2019-01-04T22:04:51.540Z,5.60
2019-01-04T22:07:37.696Z,5.50
2019-01-04T22:10:08.012Z,5.60
2019-01-04T22:12:53.688Z,5.60
2019-01-04T22:15:40.054Z,5.60
2019-01-04T22:18:26.242Z,5.70
2019-01-04T22:21:08.335Z,5.70
2019-01-04T22:23:41.368Z,5.70
2019-01-04T22:26:29.887Z,5.70
2019-01-04T22:28:59.924Z,5.60
2019-01-04T22:31:34.291Z,5.70
2019-01-04T22:34:13.682Z,5.70
2019-01-04T22:36:44.028Z,5.70
2019-01-04T22:39:16.820Z,5.70
2019-01-04T22:41:58.703Z,5.70
2019-01-04T22:44:44.954Z,5.70
2019-01-04T22:47:26.539Z,5.70
2019-01-04T22:50:02.274Z,5.80
2019-01-04T22:52:50.486Z,5.80
2019-01-04T22:55:36.681Z,5.80
2019-01-04T22:58:22.789Z,5.70
2019-01-04T23:00:55.681Z,5.70
2019-01-04T23:03:41.855Z,5.70
2019-01-04T23:06:20.879Z,5.70
2019-01-04T23:08:50.894Z,5.70
2019-01-04T23:11:37.056Z,5.70
2019-01-04T23:14:25.230Z,5.70
2019-01-04T23:17:11.735Z,5.70
2019-01-04T23:19:50.616Z,5.70
2019-01-04T23:22:29.093Z,5.70
2019-01-04T23:25:17.312Z,5.70
2019-01-04T23:27:47.352Z,5.70
2019-01-04T23:30:25.894Z,5.70
2019-01-04T23:32:55.849Z,5.70
2019-01-04T23:35:31.433Z,5.70
2019-01-04T23:38:17.505Z,5.70
2019-01-04T23:41:05.459Z,5.70
2019-01-04T23:43:51.947Z,5.70
2019-01-04T23:46:37.879Z,5.70
2019-01-04T23:49:07.830Z,5.80
2019-01-04T23:51:40.760Z,5.80
2019-01-04T23:54:19.842Z,5.80
2019-01-04T23:56:52.696Z,5.80
2019-01-04T23:59:39.013Z,5.80
